Time;durP1;ratioP1;P1;durP2;ratioP2;P2;SDS_P1;SDS_P2;PMS_P1;PMS_P2;Temp;Humidity;BMP_temperature;BMP_pressure;BME280_temperature;BME280_humidity;BME280_pressure;Samples;Min_cycle;Max_cycle;Signal;HPM_P1;HPM_P2
2023/05/11 00:00:02;;;;;;;;;8.50;7.25;;;;;13.88;86.36;100749.22;5057516;28;45492;-73
2023/05/11 00:02:27;;;;;;;;;8.50;8.50;;;;;13.83;86.38;100742.47;5057313;28;45329;-74
2023/05/11 00:04:53;;;;;;;;;8.00;8.00;;;;;13.76;86.37;100735.78;5056542;28;45521;-78
2023/05/11 00:07:18;;;;;;;;;7.00;7.00;;;;;13.79;86.26;100746.19;5034952;28;47323;-77
2023/05/11 00:09:44;;;;;;;;;6.75;6.75;;;;;13.75;86.70;100744.63;5036563;28;49153;-77
2023/05/11 00:12:09;;;;;;;;;7.25;7.25;;;;;13.66;86.94;100730.09;5035577;28;45476;-77
2023/05/11 00:14:35;;;;;;;;;10.25;10.25;;;;;13.69;87.20;100741.38;5037240;28;45276;-73
2023/05/11 00:17:00;;;;;;;;;7.50;7.50;;;;;13.65;87.26;100731.88;5036954;28;45286;-74
2023/05/11 00:19:26;;;;;;;;;7.25;7.25;;;;;13.63;87.56;100741.69;5037193;28;45267;-74
2023/05/11 00:21:52;;;;;;;;;5.75;5.75;;;;;13.63;87.60;100741.69;5052712;28;45326;-72
2023/05/11 00:24:17;;;;;;;;;6.50;6.50;;;;;13.64;87.79;100734.59;5035900;28;45451;-72
2023/05/11 00:26:42;;;;;;;;;6.50;6.50;;;;;13.62;87.96;100729.41;5037763;28;46098;-73
2023/05/11 00:29:08;;;;;;;;;5.75;5.75;;;;;13.64;88.01;100730.19;5037375;28;45368;-70
2023/05/11 00:31:33;;;;;;;;;5.00;5.00;;;;;13.68;88.28;100728.22;5037084;28;47302;-73
2023/05/11 00:33:58;;;;;;;;;9.00;9.00;;;;;13.69;87.96;100722.00;5037107;28;45512;-77
2023/05/11 00:36:23;;;;;;;;;8.00;8.00;;;;;13.66;87.58;100715.09;5036627;28;45374;-78
2023/05/11 00:38:49;;;;;;;;;6.50;6.50;;;;;13.73;87.22;100728.84;5036534;28;45272;-73
2023/05/11 00:41:14;;;;;;;;;6.75;6.25;;;;;13.67;87.00;100718.59;5036953;28;45370;-72
2023/05/11 00:43:40;;;;;;;;;7.50;7.50;;;;;13.70;87.00;100724.59;5051998;28;45610;-73
2023/05/11 00:46:06;;;;;;;;;7.75;7.50;;;;;13.72;87.00;100722.72;5036356;28;46489;-73
2023/05/11 00:48:32;;;;;;;;;6.00;6.00;;;;;13.71;86.44;100723.66;5036429;28;45496;-73
2023/05/11 00:51:02;;;;;;;;;6.00;6.00;;;;;13.70;86.25;100729.00;5037111;28;45371;-77
2023/05/11 00:53:27;;;;;;;;;8.25;8.00;;;;;13.67;85.80;100716.81;5037317;28;45574;-80
2023/05/11 00:55:53;;;;;;;;;7.50;7.50;;;;;13.70;86.15;100713.13;5036550;28;45737;-76
2023/05/11 00:58:19;;;;;;;;;8.00;7.00;;;;;13.73;86.15;100724.41;5039695;28;45382;-77
2023/05/11 01:00:46;;;;;;;;;7.50;6.00;;;;;13.66;86.00;100709.81;5045062;28;45243;-77
2023/05/11 01:03:13;;;;;;;;;5.75;5.75;;;;;13.65;85.60;100710.75;5049753;28;45589;-72
2023/05/11 01:05:57;;;;;;;;;5.00;5.00;;;;;13.65;85.85;100716.03;5049671;28;45691;-79
2023/05/11 01:08:41;;;;;;;;;7.00;5.00;;;;;13.67;86.42;100713.28;5037776;28;45386;-74
2023/05/11 01:11:16;;;;;;;;;4.75;4.75;;;;;13.68;86.21;100722.94;5036605;28;45338;-79
2023/05/11 01:13:47;;;;;;;;;4.00;4.00;;;;;13.70;86.52;100705.19;5036663;28;45236;-78
2023/05/11 01:16:19;;;;;;;;;5.00;5.00;;;;;13.67;86.53;100708.00;5036376;28;45680;-76
2023/05/11 01:19:17;;;;;;;;;7.00;6.00;;;;;13.66;86.49;100708.94;5036046;28;45473;-76
2023/05/11 01:21:45;;;;;;;;;3.50;3.50;;;;;13.64;86.98;100710.81;5034330;28;45544;-73
2023/05/11 01:24:17;;;;;;;;;3.00;3.00;;;;;13.62;87.34;100708.25;5036215;28;45565;-74
2023/05/11 01:27:02;;;;;;;;;4.00;4.00;;;;;13.61;87.50;100711.84;5035914;28;46234;-74
2023/05/11 01:29:49;;;;;;;;;4.00;4.00;;;;;13.54;87.30;100703.34;5035576;28;45501;-73
2023/05/11 01:32:24;;;;;;;;;4.00;4.00;;;;;13.59;87.20;100714.53;5035747;28;45294;-73
2023/05/11 01:34:59;;;;;;;;;5.00;5.00;;;;;13.56;87.86;100714.69;5036136;28;45454;-74
2023/05/11 01:37:26;;;;;;;;;5.25;4.75;;;;;13.51;88.08;100708.78;5035550;28;46712;-69
2023/05/11 01:39:55;;;;;;;;;4.00;4.00;;;;;13.54;87.88;100724.50;5035594;28;45388;-70
2023/05/11 01:42:30;;;;;;;;;7.75;7.75;;;;;13.47;88.14;100716.97;5051120;28;45829;-71
2023/05/11 01:44:59;;;;;;;;;5.00;5.00;;;;;13.38;88.54;100707.66;5035618;28;45455;-71
2023/05/11 01:47:27;;;;;;;;;6.00;6.00;;;;;13.37;88.82;100725.31;5035206;28;45419;-72
2023/05/11 01:49:54;;;;;;;;;3.50;3.50;;;;;13.34;89.09;100716.69;5035213;28;45391;-71
2023/05/11 01:52:23;;;;;;;;;3.00;3.00;;;;;13.35;89.41;100715.75;5034185;28;45473;-71
2023/05/11 01:54:51;;;;;;;;;5.00;5.00;;;;;13.37;89.46;100713.88;5035082;28;45311;-72
2023/05/11 01:57:18;;;;;;;;;3.25;3.00;;;;;13.41;89.27;100724.25;5035115;28;45396;-71
2023/05/11 01:59:45;;;;;;;;;2.50;2.50;;;;;13.37;88.97;100716.53;5035203;28;45570;-71
2023/05/11 02:02:12;;;;;;;;;3.25;3.00;;;;;13.35;89.45;100716.63;5035065;28;45313;-72
2023/05/11 02:04:39;;;;;;;;;3.50;3.50;;;;;13.25;89.35;100710.91;5035612;28;45431;-70
2023/05/11 02:07:09;;;;;;;;;3.00;3.00;;;;;13.34;88.86;100722.84;5035003;28;45538;-72
2023/05/11 02:09:36;;;;;;;;;3.25;3.25;;;;;13.32;89.54;100727.34;5034849;28;45465;-72
2023/05/11 02:12:03;;;;;;;;;3.00;3.00;;;;;13.36;89.77;100733.31;5034821;28;45406;-69
2023/05/11 02:14:32;;;;;;;;;2.00;2.00;;;;;13.33;89.79;100722.91;5035440;28;45334;-71
2023/05/11 02:17:00;;;;;;;;;3.00;3.00;;;;;13.29;90.02;100715.13;5033511;28;47286;-73
2023/05/11 02:19:28;;;;;;;;;3.00;3.00;;;;;13.34;90.12;100729.88;5034891;28;45421;-70
2023/05/11 02:21:55;;;;;;;;;2.25;2.25;;;;;13.34;90.24;100736.03;5035487;28;45263;-71
2023/05/11 02:24:23;;;;;;;;;3.00;3.00;;;;;13.32;90.95;100726.47;5050979;28;45632;-71
2023/05/11 02:26:48;;;;;;;;;3.25;3.25;;;;;13.32;90.93;100732.63;5035148;28;46417;-73
2023/05/11 02:29:14;;;;;;;;;3.00;3.00;;;;;13.37;90.37;100740.31;5035141;28;45576;-73
2023/05/11 02:31:43;;;;;;;;;3.00;3.00;;;;;13.36;90.70;100733.31;5035109;28;45244;-71
2023/05/11 02:34:19;;;;;;;;;0.00;0.00;;;;;13.35;90.91;100732.47;5034143;28;45443;-71
2023/05/11 02:36:48;;;;;;;;;4.25;4.25;;;;;13.37;91.20;100733.25;5034761;28;45438;-71
2023/05/11 02:39:20;;;;;;;;;2.50;2.50;;;;;13.37;91.46;100733.25;5034868;28;45386;-78
2023/05/11 02:41:48;;;;;;;;;2.50;2.50;;;;;13.38;91.61;100727.03;5035013;28;45306;-74
2023/05/11 02:44:17;;;;;;;;;4.50;4.50;;;;;13.37;92.13;100730.59;5038273;28;45506;-74
2023/05/11 02:46:47;;;;;;;;;2.75;2.75;;;;;13.33;92.41;100726.41;5045564;28;47217;-73
2023/05/11 02:49:17;;;;;;;;;2.50;2.50;;;;;13.34;92.55;100735.16;5048276;28;45208;-73
2023/05/11 02:51:45;;;;;;;;;4.25;4.25;;;;;13.28;92.61;100726.63;5053979;28;45351;-71
2023/05/11 02:54:11;;;;;;;;;5.25;5.00;;;;;13.29;93.20;100725.69;5034774;28;45229;-76
2023/05/11 02:56:38;;;;;;;;;5.75;4.25;;;;;13.26;93.25;100725.84;5034325;28;46604;-74
2023/05/11 02:59:03;;;;;;;;;4.25;4.25;;;;;13.26;93.29;100717.06;5034084;28;45557;-71
2023/05/11 03:01:29;;;;;;;;;3.75;3.75;;;;;13.25;93.73;100721.50;5033097;28;45374;-70
2023/05/11 03:03:55;;;;;;;;;3.50;3.50;;;;;13.24;94.10;100716.25;5034816;28;45410;-77
2023/05/11 03:06:20;;;;;;;;;4.00;4.00;;;;;13.25;93.97;100720.63;5036004;28;46454;-73
2023/05/11 03:08:46;;;;;;;;;4.25;4.25;;;;;13.27;94.70;100719.63;5038027;28;45367;-72
2023/05/11 03:11:13;;;;;;;;;4.75;4.75;;;;;13.26;94.49;100717.06;5038149;28;45467;-72
2023/05/11 03:13:41;;;;;;;;;3.75;3.75;;;;;13.25;94.52;100715.34;5039176;28;45313;-73
2023/05/11 03:16:08;;;;;;;;;3.00;3.00;;;;;13.17;94.67;100707.81;5037838;28;45543;-72
2023/05/11 03:18:35;;;;;;;;;5.00;4.00;;;;;13.28;94.60;100721.34;5037756;28;45389;-73
2023/05/11 03:21:01;;;;;;;;;5.00;5.00;;;;;13.24;94.50;100717.13;5053394;28;45351;-75
2023/05/11 03:23:28;;;;;;;;;4.25;4.25;;;;;13.28;94.58;100723.97;5038501;28;45584;-76
2023/05/11 03:25:55;;;;;;;;;5.00;5.00;;;;;13.28;94.77;100716.06;5036704;28;47276;-74
2023/05/11 03:28:22;;;;;;;;;4.50;4.50;;;;;13.27;94.62;100714.34;5037740;28;45409;-74
2023/05/11 03:30:50;;;;;;;;;4.00;4.00;;;;;13.29;94.55;100711.63;5038860;28;45231;-76
2023/05/11 03:33:16;;;;;;;;;3.25;3.25;;;;;13.27;94.62;100713.50;5038890;28;45263;-76
2023/05/11 03:35:44;;;;;;;;;3.25;3.25;;;;;13.23;94.38;100701.34;5038500;28;46276;-76
2023/05/11 03:38:11;;;;;;;;;4.25;4.25;;;;;13.26;94.57;100715.28;5038326;28;45313;-79
2023/05/11 03:40:40;;;;;;;;;3.00;3.00;;;;;13.23;94.30;100718.06;5038048;28;45244;-75
2023/05/11 03:43:09;;;;;;;;;2.25;2.25;;;;;13.26;94.45;100715.28;5037978;28;45372;-76
2023/05/11 03:45:36;;;;;;;;;3.00;3.00;;;;;13.26;94.43;100727.66;5052515;28;47480;-76
2023/05/11 03:48:04;;;;;;;;;3.00;3.00;;;;;13.21;94.45;100717.28;5037182;28;45275;-78
2023/05/11 03:50:31;;;;;;;;;3.00;3.00;;;;;13.23;94.56;100719.84;5037439;28;45302;-75
2023/05/11 03:52:58;;;;;;;;;3.25;3.25;;;;;13.15;94.68;100702.59;5053428;28;45303;-76
2023/05/11 03:55:23;;;;;;;;;2.50;2.50;;;;;13.23;94.91;100717.19;5038135;28;45577;-72
2023/05/11 03:57:49;;;;;;;;;4.50;4.50;;;;;13.20;94.24;100705.00;5037305;28;45298;-79
2023/05/11 04:00:15;;;;;;;;;2.75;2.75;;;;;13.21;93.69;100714.66;5037906;28;45960;-76
2023/05/11 04:02:41;;;;;;;;;6.75;6.75;;;;;13.20;93.56;100712.06;5054289;28;45227;-76
2023/05/11 04:05:07;;;;;;;;;5.00;5.00;;;;;13.20;93.83;100715.56;5039238;28;46508;-75
2023/05/11 04:07:34;;;;;;;;;3.25;3.25;;;;;13.20;94.00;100707.66;5038571;28;45333;-74
2023/05/11 04:10:00;;;;;;;;;5.00;5.00;;;;;13.18;93.93;100712.16;5038036;28;45338;-73
2023/05/11 04:12:25;;;;;;;;;7.00;7.00;;;;;13.13;93.58;100701.81;5038505;28;45327;-76
2023/05/11 04:14:51;;;;;;;;;6.25;6.25;;;;;13.12;93.60;100704.53;5037580;28;46183;-78
2023/05/11 04:17:16;;;;;;;;;5.25;5.25;;;;;13.13;94.20;100701.81;5036565;28;45387;-77
2023/05/11 04:19:41;;;;;;;;;4.50;4.50;;;;;13.16;93.99;100708.75;5035698;28;45365;-78
2023/05/11 04:22:06;;;;;;;;;4.75;4.75;;;;;13.18;94.16;100709.50;5035895;28;45332;-78
2023/05/11 04:24:32;;;;;;;;;6.00;5.75;;;;;13.20;94.04;100715.56;5036993;28;46190;-78
2023/05/11 04:26:57;;;;;;;;;4.50;4.00;;;;;13.21;93.83;100714.66;5037440;28;45343;-80
2023/05/11 04:29:23;;;;;;;;;5.00;5.00;;;;;13.09;94.07;100689.69;5036172;28;45379;-79
2023/05/11 04:31:48;;;;;;;;;4.50;4.50;;;;;13.25;93.65;100716.22;5051839;28;44949;-79
2023/05/11 04:34:13;;;;;;;;;4.50;4.50;;;;;13.25;93.72;100713.56;5067026;28;47125;-76
2023/05/11 04:36:38;;;;;;;;;5.00;5.00;;;;;13.29;93.45;100716.94;5051218;28;50709;-78
2023/05/11 04:39:04;;;;;;;;;5.00;5.00;;;;;13.27;93.35;100709.06;5041804;28;45285;-76
2023/05/11 04:41:30;;;;;;;;;7.00;7.00;;;;;13.30;93.02;100711.56;5039236;28;45589;-80
2023/05/11 04:43:55;;;;;;;;;5.50;5.50;;;;;13.33;93.06;100709.69;5037900;28;46033;-73
2023/05/11 04:46:22;;;;;;;;;4.00;4.00;;;;;13.36;92.83;100712.19;5036703;28;53704;-72
2023/05/11 04:48:47;;;;;;;;;5.25;5.25;;;;;13.37;92.40;100717.41;5035510;28;45297;-71
2023/05/11 04:51:13;;;;;;;;;6.25;6.25;;;;;13.38;91.89;100711.19;5052231;28;45793;-72
2023/05/11 04:53:38;;;;;;;;;3.75;3.75;;;;;13.35;92.07;100707.81;5036485;28;46553;-71
2023/05/11 04:56:04;;;;;;;;;5.00;5.00;;;;;13.38;92.13;100711.19;5036442;28;45530;-71
2023/05/11 04:58:29;;;;;;;;;6.50;6.50;;;;;13.35;91.50;100721.03;5036540;28;45418;-72
2023/05/11 05:00:54;;;;;;;;;6.00;5.50;;;;;13.33;91.07;100723.75;5036226;28;45513;-71
2023/05/11 05:03:20;;;;;;;;;7.00;7.00;;;;;13.29;91.42;100717.75;5036180;28;46212;-70
2023/05/11 05:05:45;;;;;;;;;6.75;6.75;;;;;13.25;90.95;100723.25;5051603;28;45467;-70
2023/05/11 05:08:10;;;;;;;;;7.75;7.75;;;;;13.21;91.06;100725.22;5036212;28;45317;-71
2023/05/11 05:10:36;;;;;;;;;8.00;8.00;;;;;13.20;90.89;100717.34;5036308;28;45410;-69
2023/05/11 05:13:01;;;;;;;;;7.75;7.75;;;;;13.20;90.81;100727.91;5035624;28;65961;-71
2023/05/11 05:15:26;;;;;;;;;9.50;9.50;;;;;13.19;90.86;100727.06;5036243;28;45413;-76
2023/05/11 05:17:52;;;;;;;;;13.00;11.50;;;;;13.21;90.96;100730.50;5036224;28;45438;-73
2023/05/11 05:20:17;;;;;;;;;9.25;9.25;;;;;13.22;91.24;100721.63;5036256;28;45390;-76
2023/05/11 05:22:43;;;;;;;;;6.25;6.25;;;;;13.29;90.77;100727.50;5035891;28;46523;-75
2023/05/11 05:25:08;;;;;;;;;8.75;8.75;;;;;13.27;89.83;100724.91;5036899;28;45304;-74
2023/05/11 05:27:34;;;;;;;;;7.00;7.00;;;;;13.17;89.70;100713.09;5036996;28;45334;-76
2023/05/11 05:29:59;;;;;;;;;11.75;10.75;;;;;13.31;89.98;100730.91;5035589;28;45171;-76
2023/05/11 05:32:25;;;;;;;;;9.25;9.25;;;;;13.27;89.42;100737.28;5036156;28;45220;-73
2023/05/11 05:34:50;;;;;;;;;9.00;9.00;;;;;13.24;89.17;100735.63;5037453;28;45410;-81
2023/05/11 05:37:15;;;;;;;;;9.50;8.75;;;;;13.19;89.28;100735.00;5053235;28;45368;-73
2023/05/11 05:39:43;;;;;;;;;11.25;11.00;;;;;13.25;89.56;100749.66;5036582;28;45545;-75
2023/05/11 05:42:09;;;;;;;;;9.50;9.50;;;;;13.26;89.06;100752.25;5038624;28;46071;-74
2023/05/11 05:44:34;;;;;;;;;7.75;7.75;;;;;13.19;89.40;100748.22;5039799;28;45331;-76
2023/05/11 05:47:00;;;;;;;;;9.75;9.75;;;;;13.23;89.75;100757.69;5038999;28;45340;-70
2023/05/11 05:49:25;;;;;;;;;8.50;8.50;;;;;13.24;90.08;100746.19;5034600;28;56584;-71
2023/05/11 05:51:51;;;;;;;;;7.75;7.75;;;;;13.32;89.85;100752.88;5034987;28;46574;-75
2023/05/11 05:54:16;;;;;;;;;9.50;9.50;;;;;13.36;89.68;100746.53;5035033;28;45322;-73
2023/05/11 05:56:42;;;;;;;;;8.00;8.00;;;;;13.39;89.50;100749.00;5034868;28;45460;-77
2023/05/11 05:59:09;;;;;;;;;10.75;10.00;;;;;13.39;89.45;100749.00;5036276;28;45589;-79
2023/05/11 06:01:35;;;;;;;;;11.25;11.25;;;;;13.44;89.08;100755.81;5036232;28;46196;-77
2023/05/11 06:04:01;;;;;;;;;9.75;9.75;;;;;13.47;88.68;100756.59;5036999;28;45390;-80
2023/05/11 06:06:26;;;;;;;;;7.25;7.25;;;;;13.35;88.37;100739.53;5050903;28;45372;-78
2023/05/11 06:08:51;;;;;;;;;9.50;9.50;;;;;13.44;88.62;100758.47;5055135;28;45296;-78
2023/05/11 06:11:17;;;;;;;;;9.50;9.50;;;;;13.40;88.56;100754.22;5055557;28;46166;-76
2023/05/11 06:13:42;;;;;;;;;10.00;10.00;;;;;13.46;89.01;100762.81;5057119;28;48328;-77
2023/05/11 06:16:07;;;;;;;;;11.00;11.00;;;;;13.46;88.56;100760.19;5059183;28;45334;-74
2023/05/11 06:18:33;;;;;;;;;10.00;10.00;;;;;13.42;88.65;100770.03;5068581;28;45518;-74
2023/05/11 06:20:58;;;;;;;;;8.25;8.25;;;;;13.40;89.50;100769.22;5060891;28;46274;-75
2023/05/11 06:23:24;;;;;;;;;8.25;8.25;;;;;13.44;89.63;100768.16;5051468;28;46179;-74
2023/05/11 06:25:49;;;;;;;;;8.00;8.00;;;;;13.43;89.29;100769.09;5055977;28;45500;-74
2023/05/11 06:28:15;;;;;;;;;9.25;9.25;;;;;13.38;88.94;100765.78;5054745;28;45451;-71
2023/05/11 06:30:40;;;;;;;;;14.00;14.00;;;;;13.40;89.30;100770.09;5053399;28;46088;-73
2023/05/11 06:33:05;;;;;;;;;9.25;9.25;;;;;13.39;88.95;100770.16;5054962;28;45295;-73
2023/05/11 06:35:31;;;;;;;;;8.75;8.75;;;;;13.39;88.87;100770.16;5052997;28;52429;-71
2023/05/11 06:37:56;;;;;;;;;9.50;9.25;;;;;13.43;88.91;100777.03;5054767;28;45614;-74
2023/05/11 06:40:22;;;;;;;;;5.50;5.50;;;;;13.33;89.02;100751.94;5052766;28;45265;-74
2023/05/11 06:42:47;;;;;;;;;8.75;8.75;;;;;13.42;88.67;100781.47;5054526;28;45435;-75
2023/05/11 06:45:12;;;;;;;;;10.00;10.00;;;;;13.43;89.43;100779.66;5054425;28;51339;-75
2023/05/11 06:47:38;;;;;;;;;11.00;11.00;;;;;13.43;89.25;100777.91;5055983;28;45606;-72
2023/05/11 06:50:04;;;;;;;;;11.50;11.50;;;;;13.42;89.42;100770.91;5053022;28;47436;-74
2023/05/11 06:52:29;;;;;;;;;10.00;10.00;;;;;13.50;89.98;100783.72;5054339;28;45274;-73
2023/05/11 06:54:55;;;;;;;;;9.50;9.50;;;;;13.52;89.06;100781.00;5053998;28;45364;-76
2023/05/11 06:57:21;;;;;;;;;11.25;11.25;;;;;13.53;88.67;100778.28;5054483;28;45362;-75
2023/05/11 06:59:46;;;;;;;;;10.50;10.00;;;;;13.60;88.67;100778.84;5052518;28;48178;-76
2023/05/11 07:02:12;;;;;;;;;10.00;10.00;;;;;13.61;88.87;100779.69;5052564;28;45427;-78
2023/05/11 07:04:38;;;;;;;;;11.00;11.00;;;;;13.57;88.82;100774.56;5054617;28;45276;-76
2023/05/11 07:07:03;;;;;;;;;9.50;9.50;;;;;13.65;88.80;100779.47;5054150;28;51536;-74
2023/05/11 07:09:28;;;;;;;;;10.50;10.25;;;;;13.68;88.59;100781.09;5053635;28;45523;-77
2023/05/11 07:11:55;;;;;;;;;7.75;7.75;;;;;13.58;88.31;100776.25;5053747;28;52857;-77
2023/05/11 07:14:20;;;;;;;;;16.50;16.50;;;;;13.54;88.20;100772.06;5054641;28;45318;-76
2023/05/11 07:16:45;;;;;;;;;11.25;10.25;;;;;13.61;88.30;100780.56;5054221;28;45764;-75
2023/05/11 07:19:11;;;;;;;;;10.25;9.25;;;;;13.62;88.75;100776.97;5054269;28;45356;-75
2023/05/11 07:21:36;;;;;;;;;9.75;9.75;;;;;13.71;88.91;100783.56;5054009;28;45403;-72
2023/05/11 07:24:02;;;;;;;;;10.00;10.00;;;;;13.65;88.41;100760.09;5054399;28;45414;-71
2023/05/11 07:26:28;;;;;;;;;7.50;7.50;;;;;13.85;88.20;100782.88;5054409;28;45273;-74
2023/05/11 07:28:53;;;;;;;;;10.25;10.25;;;;;13.88;87.18;100778.31;5053993;28;45394;-72
2023/05/11 07:31:19;;;;;;;;;9.00;9.00;;;;;13.92;87.00;100778.16;5053995;28;45391;-71
2023/05/11 07:33:44;;;;;;;;;9.25;9.25;;;;;13.89;86.92;100776.50;5054283;28;45297;-69
2023/05/11 07:36:09;;;;;;;;;8.75;8.75;;;;;13.97;86.74;100781.44;5054605;28;45259;-72
2023/05/11 07:38:35;;;;;;;;;10.00;10.00;;;;;14.02;86.72;100779.41;5052527;28;48059;-72
2023/05/11 07:41:01;;;;;;;;;9.50;9.50;;;;;14.06;86.32;100780.06;5053936;28;45205;-75
2023/05/11 07:43:26;;;;;;;;;10.00;10.00;;;;;14.10;86.18;100785.16;5054285;28;45402;-77
2023/05/11 07:45:51;;;;;;;;;8.00;8.00;;;;;14.11;86.10;100784.22;5053090;28;45531;-77
2023/05/11 07:48:17;;;;;;;;;9.75;9.75;;;;;14.21;85.99;100781.91;5053849;28;46426;-76
2023/05/11 07:50:43;;;;;;;;;11.25;11.00;;;;;14.28;84.85;100790.41;5054215;28;45379;-77
2023/05/11 07:53:08;;;;;;;;;11.25;11.25;;;;;14.27;84.31;100784.25;5055531;28;45311;-76
2023/05/11 07:55:34;;;;;;;;;12.00;12.00;;;;;14.32;84.84;100786.66;5058171;28;45398;-73
2023/05/11 07:57:59;;;;;;;;;8.50;7.75;;;;;14.38;84.42;100786.34;5056087;28;46944;-77
2023/05/11 08:00:24;;;;;;;;;9.00;9.00;;;;;14.50;83.96;100784.84;5057389;28;45472;-73
2023/05/11 08:02:50;;;;;;;;;11.00;11.00;;;;;14.59;83.75;100780.81;5059457;28;45856;-76
2023/05/11 08:05:16;;;;;;;;;11.00;11.00;;;;;14.71;83.20;100777.53;5063140;28;45374;-71
2023/05/11 08:07:42;;;;;;;;;9.50;9.50;;;;;14.77;82.05;100780.78;5062602;28;45709;-74
2023/05/11 08:10:08;;;;;;;;;8.00;8.00;;;;;14.74;81.31;100779.19;5061777;28;45694;-75
2023/05/11 08:12:34;;;;;;;;;15.50;15.50;;;;;14.83;81.11;100780.47;5058433;28;45509;-76
2023/05/11 08:14:59;;;;;;;;;11.25;11.25;;;;;14.85;80.99;100768.03;5056146;28;45518;-77
2023/05/11 08:17:25;;;;;;;;;8.25;8.25;;;;;14.95;80.98;100778.94;5056683;28;46754;-73
2023/05/11 08:19:50;;;;;;;;;10.00;10.00;;;;;14.95;80.72;100769.22;5056750;28;45410;-77
2023/05/11 08:22:16;;;;;;;;;8.50;8.50;;;;;15.08;80.34;100776.47;5056993;28;45200;-74
2023/05/11 08:24:41;;;;;;;;;11.00;11.00;;;;;15.10;79.60;100780.72;5057049;28;45332;-78
2023/05/11 08:27:07;;;;;;;;;15.00;14.00;;;;;15.18;79.24;100785.63;5056256;28;53303;-76
2023/05/11 08:29:32;;;;;;;;;8.00;8.00;;;;;15.19;79.19;100776.72;5056333;28;45282;-72
2023/05/11 08:31:58;;;;;;;;;10.00;10.00;;;;;15.25;78.61;100783.44;5056439;28;45196;-70
2023/05/11 08:34:23;;;;;;;;;10.75;10.00;;;;;15.28;78.58;100785.94;5056412;28;45636;-73
2023/05/11 08:36:49;;;;;;;;;9.75;9.75;;;;;15.30;78.39;100782.25;5053887;28;45714;-74
2023/05/11 08:39:15;;;;;;;;;10.75;10.75;;;;;15.32;78.12;100776.84;5056393;28;45378;-70
2023/05/11 08:41:41;;;;;;;;;5.25;5.25;;;;;15.39;78.17;100772.94;5055110;28;45375;-71
2023/05/11 08:44:08;;;;;;;;;10.00;10.00;;;;;15.41;77.36;100771.06;5056743;28;45803;-69
2023/05/11 08:46:37;;;;;;;;;11.25;11.25;;;;;15.40;77.24;100765.84;5055797;28;46573;-71
2023/05/11 08:49:02;;;;;;;;;11.00;11.00;;;;;15.40;77.56;100772.00;5055778;28;45228;-72
2023/05/11 08:51:27;;;;;;;;;10.75;10.75;;;;;15.51;77.61;100774.00;5056136;28;45484;-72
2023/05/11 08:53:55;;;;;;;;;8.00;8.00;;;;;15.60;77.30;100773.47;5055468;28;45621;-71
2023/05/11 08:56:21;;;;;;;;;10.00;10.00;;;;;15.65;76.84;100764.41;5056018;28;47223;-70
2023/05/11 08:58:46;;;;;;;;;12.00;12.00;;;;;15.85;76.82;100769.38;5056565;28;45320;-74
2023/05/11 09:01:13;;;;;;;;;10.00;10.00;;;;;16.09;76.24;100765.38;5056393;28;45299;-71
2023/05/11 09:03:40;;;;;;;;;12.00;12.00;;;;;16.27;75.43;100764.25;5056167;28;45290;-71
2023/05/11 09:06:07;;;;;;;;;11.00;11.00;;;;;16.40;74.19;100763.50;5055726;28;46522;-71
2023/05/11 09:08:37;;;;;;;;;9.00;9.00;;;;;16.47;73.68;100763.03;5056615;28;45226;-75
2023/05/11 09:11:03;;;;;;;;;9.50;9.50;;;;;16.56;73.09;100772.25;5057066;28;45290;-73
2023/05/11 09:13:30;;;;;;;;;12.50;12.50;;;;;16.56;72.66;100766.94;5057254;28;45538;-73
2023/05/11 09:15:56;;;;;;;;;9.75;9.75;;;;;16.58;72.61;100769.47;5056098;28;46621;-75
2023/05/11 09:18:21;;;;;;;;;8.75;8.50;;;;;16.53;72.99;100767.13;5054781;28;45218;-71
2023/05/11 09:20:49;;;;;;;;;11.00;11.00;;;;;16.61;72.19;100775.47;5056487;28;45437;-77
2023/05/11 09:23:16;;;;;;;;;11.00;11.00;;;;;16.63;72.02;100770.91;5056577;28;45652;-72
2023/05/11 09:25:41;;;;;;;;;9.50;9.50;;;;;16.66;71.48;100775.16;5054659;28;47293;-71
2023/05/11 09:28:10;;;;;;;;;9.75;9.75;;;;;16.68;71.54;100770.59;5055662;28;45309;-74
2023/05/11 09:30:36;;;;;;;;;10.50;10.50;;;;;16.72;70.97;100769.47;5055704;28;45292;-75
2023/05/11 09:33:02;;;;;;;;;8.25;8.25;;;;;16.80;70.60;100769.81;5054423;28;45312;-75
2023/05/11 09:35:33;;;;;;;;;10.50;10.50;;;;;16.92;69.86;100778.84;5054221;28;47318;-69
2023/05/11 09:38:11;;;;;;;;;9.00;9.00;;;;;16.96;68.95;100778.63;5055567;28;45439;-72
2023/05/11 09:40:37;;;;;;;;;11.00;11.00;;;;;17.03;69.04;100772.88;5055671;28;45322;-75
2023/05/11 09:43:16;;;;;;;;;10.00;10.00;;;;;17.10;68.32;100770.66;5054553;28;45358;-73
2023/05/11 09:45:45;;;;;;;;;7.25;7.25;;;;;17.13;67.89;100765.13;5055904;28;45561;-71
2023/05/11 09:48:20;;;;;;;;;11.00;10.25;;;;;17.18;67.62;100765.69;5054369;28;45377;-71
2023/05/11 09:50:51;;;;;;;;;10.50;10.50;;;;;17.16;67.26;100756.13;5056701;28;45292;-71
2023/05/11 09:53:17;;;;;;;;;9.50;9.50;;;;;17.27;67.64;100769.56;5056966;28;45457;-72
2023/05/11 09:55:53;;;;;;;;;9.75;9.75;;;;;17.31;67.11;100760.44;5058183;28;46937;-74
2023/05/11 09:58:18;;;;;;;;;9.75;9.75;;;;;17.26;67.11;100762.53;5055782;28;45335;-75
2023/05/11 10:00:53;;;;;;;;;9.75;9.75;;;;;17.23;66.89;100757.44;5055216;28;45493;-77
2023/05/11 10:03:19;;;;;;;;;9.50;9.50;;;;;17.20;66.50;100766.44;5054273;28;45526;-76
2023/05/11 10:06:00;;;;;;;;;8.00;8.00;;;;;17.06;66.53;100763.84;5053916;28;47083;-78
2023/05/11 10:08:33;;;;;;;;;10.50;10.50;;;;;16.96;66.69;100757.38;5055335;28;45365;-77
2023/05/11 10:11:01;;;;;;;;;11.25;11.25;;;;;16.88;66.76;100753.41;5055450;28;45245;-74
2023/05/11 10:13:27;;;;;;;;;15.50;15.00;;;;;16.80;66.85;100756.53;5054262;28;45486;-72
2023/05/11 10:15:54;;;;;;;;;14.25;13.50;;;;;16.76;67.26;100762.16;5054986;28;46091;-72
2023/05/11 10:18:20;;;;;;;;;21.00;21.00;;;;;16.72;67.43;100750.03;5055310;28;45294;-74
2023/05/11 10:20:46;;;;;;;;;11.25;11.25;;;;;16.75;67.72;100755.16;5055217;28;45389;-73
2023/05/11 10:23:12;;;;;;;;;10.25;10.25;;;;;16.77;67.52;100754.09;5055279;28;45225;-71
2023/05/11 10:25:38;;;;;;;;;11.25;11.25;;;;;16.78;67.58;100749.63;5053381;28;47409;-73
2023/05/11 10:28:05;;;;;;;;;9.75;9.25;;;;;16.76;67.29;100755.03;5054788;28;45579;-72
2023/05/11 10:30:33;;;;;;;;;9.50;9.50;;;;;16.79;67.17;100760.16;5054754;28;45488;-75
2023/05/11 10:33:00;;;;;;;;;9.75;9.75;;;;;16.79;67.11;100754.00;5055435;28;45401;-76
2023/05/11 10:35:26;;;;;;;;;9.25;9.25;;;;;16.75;66.54;100748.00;5054744;28;46747;-73
2023/05/11 10:37:51;;;;;;;;;10.00;10.00;;;;;16.72;66.93;100753.53;5055602;28;45317;-78
2023/05/11 10:40:17;;;;;;;;;11.00;11.00;;;;;16.76;66.91;100754.19;5053731;28;45185;-79
2023/05/11 10:43:16;;;;;;;;;10.50;10.50;;;;;16.89;66.45;100748.94;5056093;28;45583;-75
2023/05/11 10:46:20;;;;;;;;;10.75;10.75;;;;;16.98;65.48;100752.84;5055154;28;45496;-78
2023/05/11 10:49:13;;;;;;;;;6.50;6.50;;;;;17.05;65.75;100757.69;5024888;28;45872;-77
2023/05/11 10:52:03;;;;;;;;;9.50;9.50;;;;;17.10;65.71;100744.06;5057996;28;45219;-79
2023/05/11 10:54:38;;;;;;;;;8.50;8.50;;;;;17.13;65.98;100746.53;5056617;28;45364;-79
2023/05/11 10:57:22;;;;;;;;;5.00;5.00;;;;;17.22;64.78;100755.72;5055331;28;46431;-78
2023/05/11 11:00:10;;;;;;;;;6.75;6.75;;;;;17.28;64.60;100746.47;5055184;28;45497;-75
2023/05/11 11:02:36;;;;;;;;;9.50;9.50;;;;;17.38;64.78;100740.47;5055444;28;45280;-75
2023/05/11 11:05:04;;;;;;;;;9.00;9.00;;;;;17.50;64.82;100741.47;5055830;28;45418;-74
2023/05/11 11:07:57;;;;;;;;;7.25;7.25;;;;;17.54;64.08;100739.44;5054675;28;45795;-73
2023/05/11 11:10:31;;;;;;;;;12.50;11.50;;;;;17.60;63.23;100741.69;5055114;28;45263;-72
2023/05/11 11:13:07;;;;;;;;;10.25;10.25;;;;;17.66;63.50;100741.25;5053714;28;45375;-71
2023/05/11 11:16:05;;;;;;;;;10.00;10.00;;;;;17.78;62.80;100738.72;5056114;28;45248;-73
2023/05/11 11:18:34;;;;;;;;;9.25;9.25;;;;;17.80;62.63;100731.50;5031659;28;45555;-75
2023/05/11 11:21:01;;;;;;;;;10.25;10.25;;;;;17.87;62.45;100738.09;5055035;28;45279;-74
2023/05/11 11:23:38;;;;;;;;;8.25;8.25;;;;;17.91;61.98;100730.75;5054089;28;45294;-75